sensor_id;sensor_type;location;lat;lon;timestamp;P1;durP1;ratioP1;P2;durP2;ratioP2
81714;SDS011;71125;44.066;2.982;2024-02-23T00:03:31;9.65;;;1.13;;
81714;SDS011;71125;44.066;2.982;2024-02-23T00:05:58;23.48;;;1.25;;
81714;SDS011;71125;44.066;2.982;2024-02-23T00:08:24;12.35;;;0.93;;
81714;SDS011;71125;44.066;2.982;2024-02-23T00:10:50;9.65;;;1.30;;
81714;SDS011;71125;44.066;2.982;2024-02-23T00:13:16;9.10;;;1.35;;
81714;SDS011;71125;44.066;2.982;2024-02-23T00:15:42;4.85;;;1.73;;
81714;SDS011;71125;44.066;2.982;2024-02-23T00:18:09;13.23;;;2.28;;
81714;SDS011;71125;44.066;2.982;2024-02-23T00:23:01;4.20;;;0.40;;
81714;SDS011;71125;44.066;2.982;2024-02-23T00:25:27;10.35;;;1.15;;
81714;SDS011;71125;44.066;2.982;2024-02-23T00:27:53;8.95;;;1.45;;
81714;SDS011;71125;44.066;2.982;2024-02-23T00:30:19;7.07;;;1.25;;
81714;SDS011;71125;44.066;2.982;2024-02-23T00:32:45;9.13;;;0.85;;
81714;SDS011;71125;44.066;2.982;2024-02-23T00:35:11;4.65;;;0.57;;
81714;SDS011;71125;44.066;2.982;2024-02-23T00:37:37;12.27;;;0.98;;
81714;SDS011;71125;44.066;2.982;2024-02-23T00:40:04;3.58;;;0.38;;
81714;SDS011;71125;44.066;2.982;2024-02-23T00:42:30;14.02;;;1.20;;
81714;SDS011;71125;44.066;2.982;2024-02-23T00:44:56;7.20;;;0.75;;
81714;SDS011;71125;44.066;2.982;2024-02-23T00:49:48;10.48;;;0.98;;
81714;SDS011;71125;44.066;2.982;2024-02-23T00:52:15;14.50;;;1.08;;
81714;SDS011;71125;44.066;2.982;2024-02-23T00:54:41;6.75;;;0.98;;
81714;SDS011;71125;44.066;2.982;2024-02-23T00:57:07;8.90;;;0.65;;
81714;SDS011;71125;44.066;2.982;2024-02-23T00:59:33;9.02;;;0.85;;
81714;SDS011;71125;44.066;2.982;2024-02-23T01:01:59;11.30;;;0.98;;
81714;SDS011;71125;44.066;2.982;2024-02-23T01:04:25;9.23;;;0.90;;
81714;SDS011;71125;44.066;2.982;2024-02-23T01:06:51;11.02;;;0.88;;
81714;SDS011;71125;44.066;2.982;2024-02-23T01:09:17;8.30;;;0.85;;
81714;SDS011;71125;44.066;2.982;2024-02-23T01:11:48;13.98;;;1.30;;
81714;SDS011;71125;44.066;2.982;2024-02-23T01:14:14;7.90;;;0.50;;
81714;SDS011;71125;44.066;2.982;2024-02-23T01:16:55;6.78;;;0.60;;
81714;SDS011;71125;44.066;2.982;2024-02-23T01:19:22;8.95;;;0.98;;
81714;SDS011;71125;44.066;2.982;2024-02-23T01:21:48;5.00;;;0.90;;
81714;SDS011;71125;44.066;2.982;2024-02-23T01:24:21;7.78;;;1.60;;
81714;SDS011;71125;44.066;2.982;2024-02-23T01:26:47;4.80;;;0.95;;
81714;SDS011;71125;44.066;2.982;2024-02-23T01:29:13;10.52;;;1.20;;
81714;SDS011;71125;44.066;2.982;2024-02-23T01:31:41;7.47;;;1.05;;
81714;SDS011;71125;44.066;2.982;2024-02-23T01:34:07;15.43;;;1.35;;
81714;SDS011;71125;44.066;2.982;2024-02-23T01:36:33;12.10;;;1.42;;
81714;SDS011;71125;44.066;2.982;2024-02-23T01:39:01;6.47;;;0.95;;
81714;SDS011;71125;44.066;2.982;2024-02-23T01:41:27;10.23;;;1.23;;
81714;SDS011;71125;44.066;2.982;2024-02-23T01:43:53;17.00;;;1.83;;
81714;SDS011;71125;44.066;2.982;2024-02-23T01:46:19;10.35;;;1.15;;
81714;SDS011;71125;44.066;2.982;2024-02-23T01:51:11;3.65;;;0.50;;
81714;SDS011;71125;44.066;2.982;2024-02-23T01:53:38;14.07;;;1.10;;
81714;SDS011;71125;44.066;2.982;2024-02-23T01:56:04;10.68;;;1.02;;
81714;SDS011;71125;44.066;2.982;2024-02-23T01:58:31;6.60;;;0.65;;
81714;SDS011;71125;44.066;2.982;2024-02-23T02:00:59;19.10;;;0.70;;
81714;SDS011;71125;44.066;2.982;2024-02-23T02:03:25;10.13;;;1.92;;
81714;SDS011;71125;44.066;2.982;2024-02-23T02:08:17;6.00;;;0.63;;
81714;SDS011;71125;44.066;2.982;2024-02-23T02:10:43;3.45;;;0.70;;
81714;SDS011;71125;44.066;2.982;2024-02-23T02:13:10;8.15;;;0.65;;
81714;SDS011;71125;44.066;2.982;2024-02-23T02:15:37;10.63;;;0.63;;
81714;SDS011;71125;44.066;2.982;2024-02-23T02:18:03;12.43;;;0.80;;
81714;SDS011;71125;44.066;2.982;2024-02-23T02:20:32;4.45;;;0.55;;
81714;SDS011;71125;44.066;2.982;2024-02-23T02:22:58;6.10;;;0.40;;
81714;SDS011;71125;44.066;2.982;2024-02-23T02:25:24;10.13;;;1.02;;
81714;SDS011;71125;44.066;2.982;2024-02-23T02:27:50;4.47;;;0.47;;
81714;SDS011;71125;44.066;2.982;2024-02-23T02:30:16;7.43;;;0.68;;
81714;SDS011;71125;44.066;2.982;2024-02-23T02:32:42;8.77;;;1.10;;
81714;SDS011;71125;44.066;2.982;2024-02-23T02:35:10;4.30;;;0.45;;
81714;SDS011;71125;44.066;2.982;2024-02-23T02:37:37;7.10;;;1.20;;
81714;SDS011;71125;44.066;2.982;2024-02-23T02:40:03;12.02;;;0.70;;
81714;SDS011;71125;44.066;2.982;2024-02-23T02:42:30;8.63;;;0.88;;
81714;SDS011;71125;44.066;2.982;2024-02-23T02:44:56;2.90;;;0.20;;
81714;SDS011;71125;44.066;2.982;2024-02-23T02:47:22;6.20;;;0.77;;
81714;SDS011;71125;44.066;2.982;2024-02-23T02:49:49;10.68;;;0.68;;
81714;SDS011;71125;44.066;2.982;2024-02-23T02:52:16;2.70;;;0.57;;
81714;SDS011;71125;44.066;2.982;2024-02-23T02:54:42;4.18;;;0.25;;
81714;SDS011;71125;44.066;2.982;2024-02-23T02:57:08;1.48;;;0.30;;
81714;SDS011;71125;44.066;2.982;2024-02-23T02:59:34;6.15;;;0.55;;
81714;SDS011;71125;44.066;2.982;2024-02-23T03:02:01;7.20;;;0.65;;
81714;SDS011;71125;44.066;2.982;2024-02-23T03:04:27;8.77;;;0.98;;
81714;SDS011;71125;44.066;2.982;2024-02-23T03:06:53;8.48;;;0.82;;
81714;SDS011;71125;44.066;2.982;2024-02-23T03:09:19;6.15;;;0.90;;
81714;SDS011;71125;44.066;2.982;2024-02-23T03:11:45;3.97;;;0.73;;
81714;SDS011;71125;44.066;2.982;2024-02-23T03:14:11;6.25;;;0.70;;
81714;SDS011;71125;44.066;2.982;2024-02-23T03:19:04;4.55;;;0.50;;
81714;SDS011;71125;44.066;2.982;2024-02-23T03:21:30;4.38;;;0.80;;
81714;SDS011;71125;44.066;2.982;2024-02-23T03:23:56;5.10;;;0.70;;
81714;SDS011;71125;44.066;2.982;2024-02-23T03:26:22;5.00;;;0.75;;
81714;SDS011;71125;44.066;2.982;2024-02-23T03:28:48;10.02;;;0.45;;
81714;SDS011;71125;44.066;2.982;2024-02-23T03:31:14;9.90;;;0.68;;
81714;SDS011;71125;44.066;2.982;2024-02-23T03:33:40;10.05;;;0.80;;
81714;SDS011;71125;44.066;2.982;2024-02-23T03:36:06;6.68;;;0.55;;
81714;SDS011;71125;44.066;2.982;2024-02-23T03:38:33;8.38;;;0.60;;
81714;SDS011;71125;44.066;2.982;2024-02-23T03:43:25;5.63;;;0.95;;
81714;SDS011;71125;44.066;2.982;2024-02-23T03:45:52;5.43;;;0.43;;
81714;SDS011;71125;44.066;2.982;2024-02-23T03:48:18;10.80;;;0.93;;
81714;SDS011;71125;44.066;2.982;2024-02-23T03:50:45;6.43;;;0.98;;
81714;SDS011;71125;44.066;2.982;2024-02-23T03:53:11;10.68;;;0.60;;
81714;SDS011;71125;44.066;2.982;2024-02-23T03:55:37;7.50;;;0.70;;
81714;SDS011;71125;44.066;2.982;2024-02-23T03:58:03;5.32;;;0.93;;
81714;SDS011;71125;44.066;2.982;2024-02-23T04:00:29;10.32;;;1.05;;
81714;SDS011;71125;44.066;2.982;2024-02-23T04:02:55;8.38;;;0.98;;
81714;SDS011;71125;44.066;2.982;2024-02-23T04:05:21;9.75;;;1.05;;
81714;SDS011;71125;44.066;2.982;2024-02-23T04:07:47;24.00;;;1.13;;
81714;SDS011;71125;44.066;2.982;2024-02-23T04:10:13;16.52;;;1.52;;
81714;SDS011;71125;44.066;2.982;2024-02-23T04:12:41;10.00;;;1.27;;
81714;SDS011;71125;44.066;2.982;2024-02-23T04:15:09;7.80;;;2.00;;
81714;SDS011;71125;44.066;2.982;2024-02-23T04:17:35;16.80;;;1.38;;
81714;SDS011;71125;44.066;2.982;2024-02-23T04:20:05;9.93;;;1.20;;
81714;SDS011;71125;44.066;2.982;2024-02-23T04:22:31;9.20;;;1.33;;
81714;SDS011;71125;44.066;2.982;2024-02-23T04:24:57;13.05;;;0.77;;
81714;SDS011;71125;44.066;2.982;2024-02-23T04:27:23;8.05;;;1.10;;
81714;SDS011;71125;44.066;2.982;2024-02-23T04:29:49;9.93;;;1.05;;
81714;SDS011;71125;44.066;2.982;2024-02-23T04:32:15;21.80;;;1.60;;
81714;SDS011;71125;44.066;2.982;2024-02-23T04:34:41;17.88;;;1.67;;
81714;SDS011;71125;44.066;2.982;2024-02-23T04:37:07;16.73;;;1.85;;
81714;SDS011;71125;44.066;2.982;2024-02-23T04:39:33;11.30;;;1.33;;
81714;SDS011;71125;44.066;2.982;2024-02-23T04:42:00;9.20;;;1.02;;
81714;SDS011;71125;44.066;2.982;2024-02-23T04:44:26;15.63;;;1.33;;
81714;SDS011;71125;44.066;2.982;2024-02-23T04:46:52;7.88;;;0.82;;
81714;SDS011;71125;44.066;2.982;2024-02-23T04:49:18;10.50;;;0.90;;
81714;SDS011;71125;44.066;2.982;2024-02-23T04:51:44;11.88;;;1.00;;
81714;SDS011;71125;44.066;2.982;2024-02-23T04:54:10;7.90;;;1.60;;
81714;SDS011;71125;44.066;2.982;2024-02-23T04:56:36;16.02;;;1.42;;
81714;SDS011;71125;44.066;2.982;2024-02-23T04:59:02;7.57;;;0.80;;
81714;SDS011;71125;44.066;2.982;2024-02-23T05:01:28;8.38;;;0.60;;
81714;SDS011;71125;44.066;2.982;2024-02-23T05:03:54;16.23;;;1.33;;
81714;SDS011;71125;44.066;2.982;2024-02-23T05:06:20;22.40;;;1.63;;
81714;SDS011;71125;44.066;2.982;2024-02-23T05:08:46;10.35;;;0.88;;
81714;SDS011;71125;44.066;2.982;2024-02-23T05:11:14;13.45;;;1.70;;
81714;SDS011;71125;44.066;2.982;2024-02-23T05:13:41;11.55;;;1.15;;
81714;SDS011;71125;44.066;2.982;2024-02-23T05:16:07;8.38;;;0.85;;
81714;SDS011;71125;44.066;2.982;2024-02-23T05:18:33;5.45;;;0.68;;
81714;SDS011;71125;44.066;2.982;2024-02-23T05:21:00;4.93;;;0.75;;
81714;SDS011;71125;44.066;2.982;2024-02-23T05:23:26;6.47;;;0.88;;
81714;SDS011;71125;44.066;2.982;2024-02-23T05:25:52;11.45;;;0.90;;
81714;SDS011;71125;44.066;2.982;2024-02-23T05:28:18;8.43;;;1.20;;
81714;SDS011;71125;44.066;2.982;2024-02-23T05:30:44;10.23;;;0.80;;
81714;SDS011;71125;44.066;2.982;2024-02-23T05:33:10;6.90;;;0.95;;
81714;SDS011;71125;44.066;2.982;2024-02-23T05:38:02;10.75;;;0.82;;
81714;SDS011;71125;44.066;2.982;2024-02-23T05:40:31;1.88;;;0.30;;
81714;SDS011;71125;44.066;2.982;2024-02-23T05:43:01;20.45;;;1.20;;
81714;SDS011;71125;44.066;2.982;2024-02-23T05:45:27;14.98;;;0.98;;
81714;SDS011;71125;44.066;2.982;2024-02-23T05:47:53;10.60;;;0.77;;
81714;SDS011;71125;44.066;2.982;2024-02-23T05:50:19;6.07;;;0.85;;
81714;SDS011;71125;44.066;2.982;2024-02-23T05:52:45;6.03;;;0.80;;
81714;SDS011;71125;44.066;2.982;2024-02-23T05:55:11;6.93;;;0.60;;
81714;SDS011;71125;44.066;2.982;2024-02-23T05:57:37;6.55;;;0.57;;
81714;SDS011;71125;44.066;2.982;2024-02-23T06:00:10;10.35;;;1.10;;
81714;SDS011;71125;44.066;2.982;2024-02-23T06:02:40;4.70;;;0.85;;
81714;SDS011;71125;44.066;2.982;2024-02-23T06:05:06;0.00;;;0.00;;
81714;SDS011;71125;44.066;2.982;2024-02-23T06:07:33;0.10;;;0.10;;
81714;SDS011;71125;44.066;2.982;2024-02-23T06:10:00;0.00;;;0.00;;
81714;SDS011;71125;44.066;2.982;2024-02-23T06:12:26;0.00;;;0.00;;
81714;SDS011;71125;44.066;2.982;2024-02-23T06:14:52;0.00;;;0.00;;
81714;SDS011;71125;44.066;2.982;2024-02-23T06:17:20;0.00;;;0.00;;
81714;SDS011;71125;44.066;2.982;2024-02-23T06:19:47;0.00;;;0.00;;
81714;SDS011;71125;44.066;2.982;2024-02-23T06:22:13;0.00;;;0.00;;
81714;SDS011;71125;44.066;2.982;2024-02-23T06:24:42;0.00;;;0.00;;
81714;SDS011;71125;44.066;2.982;2024-02-23T06:29:34;0.10;;;0.10;;
81714;SDS011;71125;44.066;2.982;2024-02-23T06:32:00;0.00;;;0.00;;
81714;SDS011;71125;44.066;2.982;2024-02-23T06:34:28;0.00;;;0.00;;
81714;SDS011;71125;44.066;2.982;2024-02-23T06:36:54;0.00;;;0.00;;
81714;SDS011;71125;44.066;2.982;2024-02-23T06:39:20;0.00;;;0.00;;
81714;SDS011;71125;44.066;2.982;2024-02-23T06:41:46;0.00;;;0.00;;
81714;SDS011;71125;44.066;2.982;2024-02-23T06:44:12;0.00;;;0.00;;
81714;SDS011;71125;44.066;2.982;2024-02-23T06:46:38;0.00;;;0.00;;
81714;SDS011;71125;44.066;2.982;2024-02-23T06:49:04;0.00;;;0.00;;
81714;SDS011;71125;44.066;2.982;2024-02-23T06:51:46;0.00;;;0.00;;
81714;SDS011;71125;44.066;2.982;2024-02-23T06:54:16;0.00;;;0.00;;
81714;SDS011;71125;44.066;2.982;2024-02-23T06:56:56;0.00;;;0.00;;
81714;SDS011;71125;44.066;2.982;2024-02-23T06:59:37;0.00;;;0.00;;
81714;SDS011;71125;44.066;2.982;2024-02-23T07:02:05;0.00;;;0.00;;
81714;SDS011;71125;44.066;2.982;2024-02-23T07:04:37;0.00;;;0.00;;
81714;SDS011;71125;44.066;2.982;2024-02-23T07:07:40;0.00;;;0.00;;
81714;SDS011;71125;44.066;2.982;2024-02-23T07:16:20;0.00;;;0.00;;
81714;SDS011;71125;44.066;2.982;2024-02-23T07:19:07;0.00;;;0.00;;
81714;SDS011;71125;44.066;2.982;2024-02-23T07:21:34;0.00;;;0.00;;
81714;SDS011;71125;44.066;2.982;2024-02-23T07:24:19;0.00;;;0.00;;
81714;SDS011;71125;44.066;2.982;2024-02-23T07:26:45;0.00;;;0.00;;
81714;SDS011;71125;44.066;2.982;2024-02-23T07:29:12;0.35;;;0.32;;
81714;SDS011;71125;44.066;2.982;2024-02-23T07:31:38;0.00;;;0.00;;
81714;SDS011;71125;44.066;2.982;2024-02-23T07:34:06;0.05;;;0.05;;
81714;SDS011;71125;44.066;2.982;2024-02-23T07:36:32;0.00;;;0.00;;
81714;SDS011;71125;44.066;2.982;2024-02-23T07:38:59;0.00;;;0.00;;
81714;SDS011;71125;44.066;2.982;2024-02-23T07:41:26;0.00;;;0.00;;
81714;SDS011;71125;44.066;2.982;2024-02-23T07:43:52;0.00;;;0.00;;
81714;SDS011;71125;44.066;2.982;2024-02-23T07:46:18;0.00;;;0.00;;
81714;SDS011;71125;44.066;2.982;2024-02-23T07:48:45;0.00;;;0.00;;
81714;SDS011;71125;44.066;2.982;2024-02-23T07:51:13;0.32;;;0.32;;
81714;SDS011;71125;44.066;2.982;2024-02-23T07:53:39;0.00;;;0.00;;
81714;SDS011;71125;44.066;2.982;2024-02-23T07:56:07;0.00;;;0.00;;
81714;SDS011;71125;44.066;2.982;2024-02-23T07:58:33;0.00;;;0.00;;
81714;SDS011;71125;44.066;2.982;2024-02-23T08:00:59;0.00;;;0.00;;
81714;SDS011;71125;44.066;2.982;2024-02-23T08:03:25;0.10;;;0.10;;
81714;SDS011;71125;44.066;2.982;2024-02-23T08:05:51;0.00;;;0.00;;
81714;SDS011;71125;44.066;2.982;2024-02-23T08:08:17;0.00;;;0.00;;
81714;SDS011;71125;44.066;2.982;2024-02-23T08:10:44;0.00;;;0.00;;
81714;SDS011;71125;44.066;2.982;2024-02-23T08:15:36;0.00;;;0.00;;
81714;SDS011;71125;44.066;2.982;2024-02-23T08:20:28;0.00;;;0.00;;
81714;SDS011;71125;44.066;2.982;2024-02-23T08:22:54;0.00;;;0.00;;
81714;SDS011;71125;44.066;2.982;2024-02-23T08:27:46;0.00;;;0.00;;
81714;SDS011;71125;44.066;2.982;2024-02-23T08:30:13;0.00;;;0.00;;
81714;SDS011;71125;44.066;2.982;2024-02-23T08:32:39;0.00;;;0.00;;
81714;SDS011;71125;44.066;2.982;2024-02-23T08:37:31;0.00;;;0.00;;
81714;SDS011;71125;44.066;2.982;2024-02-23T08:39:57;0.00;;;0.00;;
81714;SDS011;71125;44.066;2.982;2024-02-23T08:42:23;0.00;;;0.00;;
81714;SDS011;71125;44.066;2.982;2024-02-23T08:44:49;0.00;;;0.00;;
81714;SDS011;71125;44.066;2.982;2024-02-23T08:47:15;0.00;;;0.00;;
81714;SDS011;71125;44.066;2.982;2024-02-23T08:49:41;0.00;;;0.00;;
81714;SDS011;71125;44.066;2.982;2024-02-23T08:52:07;0.00;;;0.00;;
81714;SDS011;71125;44.066;2.982;2024-02-23T08:54:34;0.00;;;0.00;;
81714;SDS011;71125;44.066;2.982;2024-02-23T08:57:00;0.00;;;0.00;;
81714;SDS011;71125;44.066;2.982;2024-02-23T08:59:26;0.00;;;0.00;;
81714;SDS011;71125;44.066;2.982;2024-02-23T09:01:52;0.00;;;0.00;;
81714;SDS011;71125;44.066;2.982;2024-02-23T09:04:18;0.00;;;0.00;;
81714;SDS011;71125;44.066;2.982;2024-02-23T09:06:44;0.00;;;0.00;;
81714;SDS011;71125;44.066;2.982;2024-02-23T09:09:10;0.00;;;0.00;;
81714;SDS011;71125;44.066;2.982;2024-02-23T09:14:03;0.00;;;0.00;;
81714;SDS011;71125;44.066;2.982;2024-02-23T09:16:29;0.00;;;0.00;;
81714;SDS011;71125;44.066;2.982;2024-02-23T09:18:55;0.00;;;0.00;;
81714;SDS011;71125;44.066;2.982;2024-02-23T09:23:47;0.00;;;0.00;;
81714;SDS011;71125;44.066;2.982;2024-02-23T09:26:13;0.00;;;0.00;;
81714;SDS011;71125;44.066;2.982;2024-02-23T09:28:39;0.00;;;0.00;;
81714;SDS011;71125;44.066;2.982;2024-02-23T09:31:10;0.00;;;0.00;;
81714;SDS011;71125;44.066;2.982;2024-02-23T09:36:02;0.00;;;0.00;;
81714;SDS011;71125;44.066;2.982;2024-02-23T09:38:28;0.00;;;0.00;;
81714;SDS011;71125;44.066;2.982;2024-02-23T09:40:57;0.00;;;0.00;;
81714;SDS011;71125;44.066;2.982;2024-02-23T09:43:24;0.00;;;0.00;;
81714;SDS011;71125;44.066;2.982;2024-02-23T09:45:52;0.00;;;0.00;;
81714;SDS011;71125;44.066;2.982;2024-02-23T09:48:21;0.00;;;0.00;;
81714;SDS011;71125;44.066;2.982;2024-02-23T09:50:47;0.00;;;0.00;;
81714;SDS011;71125;44.066;2.982;2024-02-23T09:53:15;0.00;;;0.00;;
81714;SDS011;71125;44.066;2.982;2024-02-23T09:55:42;0.00;;;0.00;;
81714;SDS011;71125;44.066;2.982;2024-02-23T09:58:09;0.00;;;0.00;;
81714;SDS011;71125;44.066;2.982;2024-02-23T10:00:36;0.00;;;0.00;;
81714;SDS011;71125;44.066;2.982;2024-02-23T10:03:02;0.00;;;0.00;;
81714;SDS011;71125;44.066;2.982;2024-02-23T10:05:30;0.00;;;0.00;;
81714;SDS011;71125;44.066;2.982;2024-02-23T10:07:57;0.00;;;0.00;;
81714;SDS011;71125;44.066;2.982;2024-02-23T10:10:32;0.00;;;0.00;;
81714;SDS011;71125;44.066;2.982;2024-02-23T10:12:59;0.00;;;0.00;;
81714;SDS011;71125;44.066;2.982;2024-02-23T10:15:25;0.00;;;0.00;;
81714;SDS011;71125;44.066;2.982;2024-02-23T10:17:52;0.00;;;0.00;;
81714;SDS011;71125;44.066;2.982;2024-02-23T10:20:19;0.00;;;0.00;;
81714;SDS011;71125;44.066;2.982;2024-02-23T10:22:45;0.00;;;0.00;;
81714;SDS011;71125;44.066;2.982;2024-02-23T10:25:12;0.00;;;0.00;;
81714;SDS011;71125;44.066;2.982;2024-02-23T10:27:38;0.00;;;0.00;;
81714;SDS011;71125;44.066;2.982;2024-02-23T10:30:06;0.00;;;0.00;;
81714;SDS011;71125;44.066;2.982;2024-02-23T10:32:35;0.00;;;0.00;;
81714;SDS011;71125;44.066;2.982;2024-02-23T10:35:02;0.00;;;0.00;;
81714;SDS011;71125;44.066;2.982;2024-02-23T10:37:29;0.00;;;0.00;;
81714;SDS011;71125;44.066;2.982;2024-02-23T10:39:57;0.00;;;0.00;;
81714;SDS011;71125;44.066;2.982;2024-02-23T10:42:24;0.00;;;0.00;;
81714;SDS011;71125;44.066;2.982;2024-02-23T10:44:51;0.00;;;0.00;;
81714;SDS011;71125;44.066;2.982;2024-02-23T10:47:18;0.00;;;0.00;;
81714;SDS011;71125;44.066;2.982;2024-02-23T10:49:47;0.00;;;0.00;;
81714;SDS011;71125;44.066;2.982;2024-02-23T10:52:13;0.00;;;0.00;;
81714;SDS011;71125;44.066;2.982;2024-02-23T10:54:40;0.00;;;0.00;;
81714;SDS011;71125;44.066;2.982;2024-02-23T10:57:06;0.00;;;0.00;;
81714;SDS011;71125;44.066;2.982;2024-02-23T11:01:58;0.00;;;0.00;;
81714;SDS011;71125;44.066;2.982;2024-02-23T11:04:25;0.00;;;0.00;;
81714;SDS011;71125;44.066;2.982;2024-02-23T11:06:52;0.00;;;0.00;;
81714;SDS011;71125;44.066;2.982;2024-02-23T11:09:22;0.00;;;0.00;;
81714;SDS011;71125;44.066;2.982;2024-02-23T11:11:52;0.00;;;0.00;;
81714;SDS011;71125;44.066;2.982;2024-02-23T11:14:28;0.00;;;0.00;;
81714;SDS011;71125;44.066;2.982;2024-02-23T11:16:54;0.00;;;0.00;;
81714;SDS011;71125;44.066;2.982;2024-02-23T11:21:51;0.00;;;0.00;;
81714;SDS011;71125;44.066;2.982;2024-02-23T11:24:18;0.00;;;0.00;;
81714;SDS011;71125;44.066;2.982;2024-02-23T11:26:44;0.00;;;0.00;;
81714;SDS011;71125;44.066;2.982;2024-02-23T11:29:14;0.00;;;0.00;;
81714;SDS011;71125;44.066;2.982;2024-02-23T11:34:08;0.00;;;0.00;;
81714;SDS011;71125;44.066;2.982;2024-02-23T11:36:34;0.00;;;0.00;;
81714;SDS011;71125;44.066;2.982;2024-02-23T11:39:01;0.00;;;0.00;;
81714;SDS011;71125;44.066;2.982;2024-02-23T11:41:28;0.00;;;0.00;;
81714;SDS011;71125;44.066;2.982;2024-02-23T11:43:54;0.00;;;0.00;;
81714;SDS011;71125;44.066;2.982;2024-02-23T11:46:21;0.00;;;0.00;;
81714;SDS011;71125;44.066;2.982;2024-02-23T11:48:47;0.00;;;0.00;;
81714;SDS011;71125;44.066;2.982;2024-02-23T11:51:18;0.00;;;0.00;;
81714;SDS011;71125;44.066;2.982;2024-02-23T11:53:45;0.00;;;0.00;;
81714;SDS011;71125;44.066;2.982;2024-02-23T11:56:12;0.00;;;0.00;;
81714;SDS011;71125;44.066;2.982;2024-02-23T11:58:41;0.00;;;0.00;;
81714;SDS011;71125;44.066;2.982;2024-02-23T12:01:08;0.00;;;0.00;;
81714;SDS011;71125;44.066;2.982;2024-02-23T12:03:34;0.00;;;0.00;;
81714;SDS011;71125;44.066;2.982;2024-02-23T12:06:01;0.00;;;0.00;;
81714;SDS011;71125;44.066;2.982;2024-02-23T12:08:27;0.00;;;0.00;;
81714;SDS011;71125;44.066;2.982;2024-02-23T12:10:56;0.00;;;0.00;;
81714;SDS011;71125;44.066;2.982;2024-02-23T12:13:25;0.00;;;0.00;;
81714;SDS011;71125;44.066;2.982;2024-02-23T12:15:55;0.00;;;0.00;;
81714;SDS011;71125;44.066;2.982;2024-02-23T12:18:21;0.00;;;0.00;;
81714;SDS011;71125;44.066;2.982;2024-02-23T12:21:00;0.00;;;0.00;;
81714;SDS011;71125;44.066;2.982;2024-02-23T12:23:42;0.00;;;0.00;;
81714;SDS011;71125;44.066;2.982;2024-02-23T12:26:09;0.00;;;0.00;;
81714;SDS011;71125;44.066;2.982;2024-02-23T12:28:35;0.00;;;0.00;;
81714;SDS011;71125;44.066;2.982;2024-02-23T12:31:04;0.00;;;0.00;;
81714;SDS011;71125;44.066;2.982;2024-02-23T12:33:31;0.00;;;0.00;;
81714;SDS011;71125;44.066;2.982;2024-02-23T12:36:02;0.00;;;0.00;;
81714;SDS011;71125;44.066;2.982;2024-02-23T12:38:28;0.00;;;0.00;;
81714;SDS011;71125;44.066;2.982;2024-02-23T12:40:54;0.00;;;0.00;;
81714;SDS011;71125;44.066;2.982;2024-02-23T12:43:21;0.00;;;0.00;;
81714;SDS011;71125;44.066;2.982;2024-02-23T12:45:49;0.00;;;0.00;;
81714;SDS011;71125;44.066;2.982;2024-02-23T12:48:15;0.00;;;0.00;;
81714;SDS011;71125;44.066;2.982;2024-02-23T12:50:42;0.00;;;0.00;;
81714;SDS011;71125;44.066;2.982;2024-02-23T12:53:08;0.00;;;0.00;;
81714;SDS011;71125;44.066;2.982;2024-02-23T12:55:35;0.28;;;0.22;;
81714;SDS011;71125;44.066;2.982;2024-02-23T12:58:02;0.00;;;0.00;;
81714;SDS011;71125;44.066;2.982;2024-02-23T13:00:28;0.10;;;0.10;;
81714;SDS011;71125;44.066;2.982;2024-02-23T13:02:54;0.10;;;0.10;;
81714;SDS011;71125;44.066;2.982;2024-02-23T13:05:20;0.00;;;0.00;;
81714;SDS011;71125;44.066;2.982;2024-02-23T13:07:46;0.00;;;0.00;;
81714;SDS011;71125;44.066;2.982;2024-02-23T13:10:13;0.00;;;0.00;;
81714;SDS011;71125;44.066;2.982;2024-02-23T13:12:40;0.00;;;0.00;;
81714;SDS011;71125;44.066;2.982;2024-02-23T13:17:31;0.00;;;0.00;;
81714;SDS011;71125;44.066;2.982;2024-02-23T13:22:23;0.00;;;0.00;;
81714;SDS011;71125;44.066;2.982;2024-02-23T13:24:49;0.00;;;0.00;;
81714;SDS011;71125;44.066;2.982;2024-02-23T13:29:41;0.00;;;0.00;;
81714;SDS011;71125;44.066;2.982;2024-02-23T13:32:07;0.00;;;0.00;;
81714;SDS011;71125;44.066;2.982;2024-02-23T13:36:59;0.00;;;0.00;;
81714;SDS011;71125;44.066;2.982;2024-02-23T13:39:25;0.00;;;0.00;;
81714;SDS011;71125;44.066;2.982;2024-02-23T13:41:57;0.00;;;0.00;;
81714;SDS011;71125;44.066;2.982;2024-02-23T13:46:49;0.00;;;0.00;;
81714;SDS011;71125;44.066;2.982;2024-02-23T13:51:40;0.00;;;0.00;;
81714;SDS011;71125;44.066;2.982;2024-02-23T13:56:33;0.00;;;0.00;;
81714;SDS011;71125;44.066;2.982;2024-02-23T14:01:25;0.00;;;0.00;;
81714;SDS011;71125;44.066;2.982;2024-02-23T14:03:51;0.00;;;0.00;;
81714;SDS011;71125;44.066;2.982;2024-02-23T14:06:17;0.00;;;0.00;;
81714;SDS011;71125;44.066;2.982;2024-02-23T14:11:09;0.00;;;0.00;;
81714;SDS011;71125;44.066;2.982;2024-02-23T14:13:35;0.00;;;0.00;;
81714;SDS011;71125;44.066;2.982;2024-02-23T14:16:03;0.00;;;0.00;;
81714;SDS011;71125;44.066;2.982;2024-02-23T14:18:30;0.00;;;0.00;;
81714;SDS011;71125;44.066;2.982;2024-02-23T14:20:57;0.00;;;0.00;;
81714;SDS011;71125;44.066;2.982;2024-02-23T14:23:23;0.00;;;0.00;;
81714;SDS011;71125;44.066;2.982;2024-02-23T14:28:16;0.00;;;0.00;;
81714;SDS011;71125;44.066;2.982;2024-02-23T14:30:42;0.00;;;0.00;;
81714;SDS011;71125;44.066;2.982;2024-02-23T14:33:08;0.00;;;0.00;;
81714;SDS011;71125;44.066;2.982;2024-02-23T14:35:34;0.00;;;0.00;;
81714;SDS011;71125;44.066;2.982;2024-02-23T14:38:00;0.00;;;0.00;;
81714;SDS011;71125;44.066;2.982;2024-02-23T14:40:27;0.00;;;0.00;;
81714;SDS011;71125;44.066;2.982;2024-02-23T14:45:19;0.00;;;0.00;;
81714;SDS011;71125;44.066;2.982;2024-02-23T14:47:47;0.00;;;0.00;;
81714;SDS011;71125;44.066;2.982;2024-02-23T14:50:14;0.00;;;0.00;;
81714;SDS011;71125;44.066;2.982;2024-02-23T14:55:06;0.00;;;0.00;;
81714;SDS011;71125;44.066;2.982;2024-02-23T14:57:32;0.00;;;0.00;;
81714;SDS011;71125;44.066;2.982;2024-02-23T15:02:24;0.00;;;0.00;;
81714;SDS011;71125;44.066;2.982;2024-02-23T15:04:50;0.00;;;0.00;;
81714;SDS011;71125;44.066;2.982;2024-02-23T15:07:16;0.00;;;0.00;;
81714;SDS011;71125;44.066;2.982;2024-02-23T15:09:42;0.00;;;0.00;;
81714;SDS011;71125;44.066;2.982;2024-02-23T15:12:08;0.00;;;0.00;;
81714;SDS011;71125;44.066;2.982;2024-02-23T15:14:34;0.00;;;0.00;;
81714;SDS011;71125;44.066;2.982;2024-02-23T15:19:26;0.00;;;0.00;;
81714;SDS011;71125;44.066;2.982;2024-02-23T15:21:52;0.00;;;0.00;;
81714;SDS011;71125;44.066;2.982;2024-02-23T15:24:19;0.00;;;0.00;;
81714;SDS011;71125;44.066;2.982;2024-02-23T15:26:45;0.00;;;0.00;;
81714;SDS011;71125;44.066;2.982;2024-02-23T15:31:38;0.98;;;0.52;;
81714;SDS011;71125;44.066;2.982;2024-02-23T15:34:08;0.00;;;0.00;;
81714;SDS011;71125;44.066;2.982;2024-02-23T15:36:34;0.00;;;0.00;;
81714;SDS011;71125;44.066;2.982;2024-02-23T15:39:00;0.00;;;0.00;;
81714;SDS011;71125;44.066;2.982;2024-02-23T15:41:29;0.00;;;0.00;;
81714;SDS011;71125;44.066;2.982;2024-02-23T15:43:55;0.00;;;0.00;;
81714;SDS011;71125;44.066;2.982;2024-02-23T15:48:47;0.00;;;0.00;;
81714;SDS011;71125;44.066;2.982;2024-02-23T15:53:39;0.00;;;0.00;;
81714;SDS011;71125;44.066;2.982;2024-02-23T15:58:31;0.00;;;0.00;;
81714;SDS011;71125;44.066;2.982;2024-02-23T16:03:23;0.00;;;0.00;;
81714;SDS011;71125;44.066;2.982;2024-02-23T16:08:15;0.10;;;0.10;;
81714;SDS011;71125;44.066;2.982;2024-02-23T16:10:41;0.00;;;0.00;;
81714;SDS011;71125;44.066;2.982;2024-02-23T16:15:33;0.00;;;0.00;;
81714;SDS011;71125;44.066;2.982;2024-02-23T16:17:59;0.00;;;0.00;;
81714;SDS011;71125;44.066;2.982;2024-02-23T16:20:25;0.00;;;0.00;;
81714;SDS011;71125;44.066;2.982;2024-02-23T16:22:51;0.00;;;0.00;;
81714;SDS011;71125;44.066;2.982;2024-02-23T16:27:43;0.00;;;0.00;;
81714;SDS011;71125;44.066;2.982;2024-02-23T16:30:10;0.00;;;0.00;;